sensor_id;sensor_type;location;lat;lon;timestamp;pressure;altitude;pressure_sealevel;temperature
20092;BMP180;10205;49.678;6.560;2023-09-07T00:00:06;100247.00;;;26.00
20092;BMP180;10205;49.678;6.560;2023-09-07T00:02:36;100252.00;;;26.00
20092;BMP180;10205;49.678;6.560;2023-09-07T00:05:05;100243.00;;;25.90
20092;BMP180;10205;49.678;6.560;2023-09-07T00:07:34;100236.00;;;25.90
20092;BMP180;10205;49.678;6.560;2023-09-07T00:10:02;100243.00;;;25.80
20092;BMP180;10205;49.678;6.560;2023-09-07T00:12:30;100242.00;;;25.80
20092;BMP180;10205;49.678;6.560;2023-09-07T00:14:58;100242.00;;;25.80
20092;BMP180;10205;49.678;6.560;2023-09-07T00:17:25;100236.00;;;25.70
20092;BMP180;10205;49.678;6.560;2023-09-07T00:19:52;100239.00;;;25.70
20092;BMP180;10205;49.678;6.560;2023-09-07T00:22:22;100231.00;;;25.60
20092;BMP180;10205;49.678;6.560;2023-09-07T00:24:52;100237.00;;;25.60
20092;BMP180;10205;49.678;6.560;2023-09-07T00:27:19;100240.00;;;25.50
20092;BMP180;10205;49.678;6.560;2023-09-07T00:29:46;100239.00;;;25.50
20092;BMP180;10205;49.678;6.560;2023-09-07T00:32:13;100239.00;;;25.40
20092;BMP180;10205;49.678;6.560;2023-09-07T00:34:41;100241.00;;;25.40
20092;BMP180;10205;49.678;6.560;2023-09-07T00:37:08;100230.00;;;25.30
20092;BMP180;10205;49.678;6.560;2023-09-07T00:39:35;100227.00;;;25.30
20092;BMP180;10205;49.678;6.560;2023-09-07T00:42:04;100226.00;;;25.30
20092;BMP180;10205;49.678;6.560;2023-09-07T00:44:31;100222.00;;;25.20
20092;BMP180;10205;49.678;6.560;2023-09-07T00:46:58;100233.00;;;25.20
20092;BMP180;10205;49.678;6.560;2023-09-07T00:49:25;100227.00;;;25.10
20092;BMP180;10205;49.678;6.560;2023-09-07T00:51:53;100224.00;;;25.10
20092;BMP180;10205;49.678;6.560;2023-09-07T00:54:20;100224.00;;;25.00
20092;BMP180;10205;49.678;6.560;2023-09-07T00:56:47;100220.00;;;25.00
20092;BMP180;10205;49.678;6.560;2023-09-07T00:59:16;100221.00;;;25.00
20092;BMP180;10205;49.678;6.560;2023-09-07T01:01:43;100222.00;;;24.90
20092;BMP180;10205;49.678;6.560;2023-09-07T01:04:10;100219.00;;;24.90
20092;BMP180;10205;49.678;6.560;2023-09-07T01:06:42;100223.00;;;24.80
20092;BMP180;10205;49.678;6.560;2023-09-07T01:09:15;100222.00;;;24.80
20092;BMP180;10205;49.678;6.560;2023-09-07T01:11:43;100232.00;;;24.80
20092;BMP180;10205;49.678;6.560;2023-09-07T01:14:10;100218.00;;;24.70
20092;BMP180;10205;49.678;6.560;2023-09-07T01:16:39;100222.00;;;24.70
20092;BMP180;10205;49.678;6.560;2023-09-07T01:19:08;100219.00;;;24.60
20092;BMP180;10205;49.678;6.560;2023-09-07T01:21:38;100220.00;;;24.60
20092;BMP180;10205;49.678;6.560;2023-09-07T01:24:08;100218.00;;;24.50
20092;BMP180;10205;49.678;6.560;2023-09-07T01:26:36;100221.00;;;24.50
20092;BMP180;10205;49.678;6.560;2023-09-07T01:29:04;100220.00;;;24.40
20092;BMP180;10205;49.678;6.560;2023-09-07T01:31:35;100210.00;;;24.40
20092;BMP180;10205;49.678;6.560;2023-09-07T01:34:02;100217.00;;;24.40
20092;BMP180;10205;49.678;6.560;2023-09-07T01:36:30;100205.00;;;24.30
20092;BMP180;10205;49.678;6.560;2023-09-07T01:38:59;100214.00;;;24.30
20092;BMP180;10205;49.678;6.560;2023-09-07T01:41:26;100207.00;;;24.20
20092;BMP180;10205;49.678;6.560;2023-09-07T01:43:54;100209.00;;;24.20
20092;BMP180;10205;49.678;6.560;2023-09-07T01:46:21;100211.00;;;24.20
20092;BMP180;10205;49.678;6.560;2023-09-07T01:48:49;100211.00;;;24.10
20092;BMP180;10205;49.678;6.560;2023-09-07T01:51:16;100221.00;;;24.10
20092;BMP180;10205;49.678;6.560;2023-09-07T01:53:43;100219.00;;;24.00
20092;BMP180;10205;49.678;6.560;2023-09-07T01:56:11;100212.00;;;24.00
20092;BMP180;10205;49.678;6.560;2023-09-07T01:58:39;100213.00;;;24.00
20092;BMP180;10205;49.678;6.560;2023-09-07T02:01:06;100220.00;;;23.90
20092;BMP180;10205;49.678;6.560;2023-09-07T02:03:33;100214.00;;;23.90
20092;BMP180;10205;49.678;6.560;2023-09-07T02:06:00;100215.00;;;23.80
20092;BMP180;10205;49.678;6.560;2023-09-07T02:08:27;100211.00;;;23.80
20092;BMP180;10205;49.678;6.560;2023-09-07T02:10:54;100208.00;;;23.80
20092;BMP180;10205;49.678;6.560;2023-09-07T02:13:23;100208.00;;;23.70
20092;BMP180;10205;49.678;6.560;2023-09-07T02:15:50;100210.00;;;23.70
20092;BMP180;10205;49.678;6.560;2023-09-07T02:18:17;100200.00;;;23.70
20092;BMP180;10205;49.678;6.560;2023-09-07T02:20:45;100201.00;;;23.60
20092;BMP180;10205;49.678;6.560;2023-09-07T02:23:13;100205.00;;;23.60
20092;BMP180;10205;49.678;6.560;2023-09-07T02:25:41;100196.00;;;23.50
20092;BMP180;10205;49.678;6.560;2023-09-07T02:28:08;100199.00;;;23.50
20092;BMP180;10205;49.678;6.560;2023-09-07T02:30:36;100194.00;;;23.50
20092;BMP180;10205;49.678;6.560;2023-09-07T02:33:04;100205.00;;;23.40
20092;BMP180;10205;49.678;6.560;2023-09-07T02:35:31;100212.00;;;23.40
20092;BMP180;10205;49.678;6.560;2023-09-07T02:37:58;100205.00;;;23.40
20092;BMP180;10205;49.678;6.560;2023-09-07T02:40:26;100201.00;;;23.30
20092;BMP180;10205;49.678;6.560;2023-09-07T02:42:53;100203.00;;;23.30
20092;BMP180;10205;49.678;6.560;2023-09-07T02:45:20;100202.00;;;23.20
20092;BMP180;10205;49.678;6.560;2023-09-07T02:47:48;100198.00;;;23.20
20092;BMP180;10205;49.678;6.560;2023-09-07T02:50:16;100197.00;;;23.20
20092;BMP180;10205;49.678;6.560;2023-09-07T02:52:44;100199.00;;;23.20
20092;BMP180;10205;49.678;6.560;2023-09-07T02:55:11;100201.00;;;23.10
20092;BMP180;10205;49.678;6.560;2023-09-07T02:57:38;100197.00;;;23.10
20092;BMP180;10205;49.678;6.560;2023-09-07T03:00:06;100195.00;;;23.00
20092;BMP180;10205;49.678;6.560;2023-09-07T03:02:37;100191.00;;;23.00
20092;BMP180;10205;49.678;6.560;2023-09-07T03:05:07;100195.00;;;23.00
20092;BMP180;10205;49.678;6.560;2023-09-07T03:07:34;100193.00;;;22.90
20092;BMP180;10205;49.678;6.560;2023-09-07T03:10:02;100190.00;;;22.90
20092;BMP180;10205;49.678;6.560;2023-09-07T03:12:29;100187.00;;;22.90
20092;BMP180;10205;49.678;6.560;2023-09-07T03:14:56;100188.00;;;22.80
20092;BMP180;10205;49.678;6.560;2023-09-07T03:17:23;100195.00;;;22.80
20092;BMP180;10205;49.678;6.560;2023-09-07T03:19:50;100193.00;;;22.80
20092;BMP180;10205;49.678;6.560;2023-09-07T03:22:19;100194.00;;;22.70
20092;BMP180;10205;49.678;6.560;2023-09-07T03:24:46;100191.00;;;22.70
20092;BMP180;10205;49.678;6.560;2023-09-07T03:27:13;100193.00;;;22.70
20092;BMP180;10205;49.678;6.560;2023-09-07T03:29:40;100194.00;;;22.60
20092;BMP180;10205;49.678;6.560;2023-09-07T03:32:07;100188.00;;;22.60
20092;BMP180;10205;49.678;6.560;2023-09-07T03:34:35;100192.00;;;22.60
20092;BMP180;10205;49.678;6.560;2023-09-07T03:37:02;100199.00;;;22.50
20092;BMP180;10205;49.678;6.560;2023-09-07T03:39:33;100193.00;;;22.50
20092;BMP180;10205;49.678;6.560;2023-09-07T03:42:00;100190.00;;;22.50
20092;BMP180;10205;49.678;6.560;2023-09-07T03:44:27;100198.00;;;22.40
20092;BMP180;10205;49.678;6.560;2023-09-07T03:46:54;100193.00;;;22.40
20092;BMP180;10205;49.678;6.560;2023-09-07T03:49:21;100193.00;;;22.40
20092;BMP180;10205;49.678;6.560;2023-09-07T03:51:48;100198.00;;;22.30
20092;BMP180;10205;49.678;6.560;2023-09-07T03:54:16;100198.00;;;22.30
20092;BMP180;10205;49.678;6.560;2023-09-07T03:56:44;100197.00;;;22.30
20092;BMP180;10205;49.678;6.560;2023-09-07T03:59:11;100194.00;;;22.20
20092;BMP180;10205;49.678;6.560;2023-09-07T04:01:38;100196.00;;;22.20
20092;BMP180;10205;49.678;6.560;2023-09-07T04:04:06;100201.00;;;22.20
20092;BMP180;10205;49.678;6.560;2023-09-07T04:06:33;100206.00;;;22.10
20092;BMP180;10205;49.678;6.560;2023-09-07T04:09:00;100202.00;;;22.10
20092;BMP180;10205;49.678;6.560;2023-09-07T04:11:27;100193.00;;;22.10
20092;BMP180;10205;49.678;6.560;2023-09-07T04:13:56;100199.00;;;22.10
20092;BMP180;10205;49.678;6.560;2023-09-07T04:16:23;100193.00;;;22.00
20092;BMP180;10205;49.678;6.560;2023-09-07T04:18:50;100196.00;;;22.00
20092;BMP180;10205;49.678;6.560;2023-09-07T04:21:17;100205.00;;;22.00
20092;BMP180;10205;49.678;6.560;2023-09-07T04:23:44;100201.00;;;21.90
20092;BMP180;10205;49.678;6.560;2023-09-07T04:26:12;100199.00;;;21.90
20092;BMP180;10205;49.678;6.560;2023-09-07T04:28:39;100199.00;;;21.90
20092;BMP180;10205;49.678;6.560;2023-09-07T04:31:07;100201.00;;;21.80
20092;BMP180;10205;49.678;6.560;2023-09-07T04:33:35;100195.00;;;21.80
20092;BMP180;10205;49.678;6.560;2023-09-07T04:36:09;100203.00;;;21.80
20092;BMP180;10205;49.678;6.560;2023-09-07T04:38:37;100208.00;;;21.70
20092;BMP180;10205;49.678;6.560;2023-09-07T04:41:08;100207.00;;;21.70
20092;BMP180;10205;49.678;6.560;2023-09-07T04:43:36;100207.00;;;21.70
20092;BMP180;10205;49.678;6.560;2023-09-07T04:46:03;100206.00;;;21.60
20092;BMP180;10205;49.678;6.560;2023-09-07T04:48:32;100208.00;;;21.60
20092;BMP180;10205;49.678;6.560;2023-09-07T04:51:00;100203.00;;;21.60
20092;BMP180;10205;49.678;6.560;2023-09-07T04:53:29;100202.00;;;21.60
20092;BMP180;10205;49.678;6.560;2023-09-07T04:55:56;100213.00;;;21.50
20092;BMP180;10205;49.678;6.560;2023-09-07T04:58:24;100210.00;;;21.50
20092;BMP180;10205;49.678;6.560;2023-09-07T05:00:52;100213.00;;;21.50
20092;BMP180;10205;49.678;6.560;2023-09-07T05:03:19;100221.00;;;21.40
20092;BMP180;10205;49.678;6.560;2023-09-07T05:05:53;100204.00;;;21.40
20092;BMP180;10205;49.678;6.560;2023-09-07T05:08:21;100210.00;;;21.40
20092;BMP180;10205;49.678;6.560;2023-09-07T05:10:55;100216.00;;;21.30
20092;BMP180;10205;49.678;6.560;2023-09-07T05:13:22;100211.00;;;21.30
20092;BMP180;10205;49.678;6.560;2023-09-07T05:15:51;100214.00;;;21.30
20092;BMP180;10205;49.678;6.560;2023-09-07T05:18:19;100217.00;;;21.20
20092;BMP180;10205;49.678;6.560;2023-09-07T05:20:47;100219.00;;;21.20
20092;BMP180;10205;49.678;6.560;2023-09-07T05:23:19;100227.00;;;21.20
20092;BMP180;10205;49.678;6.560;2023-09-07T05:25:48;100227.00;;;21.10
20092;BMP180;10205;49.678;6.560;2023-09-07T05:28:16;100245.00;;;21.10
20092;BMP180;10205;49.678;6.560;2023-09-07T05:30:44;100245.00;;;21.10
20092;BMP180;10205;49.678;6.560;2023-09-07T05:33:13;100235.00;;;21.10
20092;BMP180;10205;49.678;6.560;2023-09-07T05:35:40;100242.00;;;21.00
20092;BMP180;10205;49.678;6.560;2023-09-07T05:38:09;100244.00;;;21.00
20092;BMP180;10205;49.678;6.560;2023-09-07T05:40:39;100243.00;;;21.00
20092;BMP180;10205;49.678;6.560;2023-09-07T05:43:06;100247.00;;;20.90
20092;BMP180;10205;49.678;6.560;2023-09-07T05:45:36;100245.00;;;20.90
20092;BMP180;10205;49.678;6.560;2023-09-07T05:48:04;100249.00;;;20.90
20092;BMP180;10205;49.678;6.560;2023-09-07T05:50:33;100247.00;;;20.90
20092;BMP180;10205;49.678;6.560;2023-09-07T05:53:01;100250.00;;;20.80
20092;BMP180;10205;49.678;6.560;2023-09-07T05:55:29;100250.00;;;20.80
20092;BMP180;10205;49.678;6.560;2023-09-07T05:57:58;100251.00;;;20.80
20092;BMP180;10205;49.678;6.560;2023-09-07T06:00:25;100253.00;;;20.80
20092;BMP180;10205;49.678;6.560;2023-09-07T06:02:52;100256.00;;;20.80
20092;BMP180;10205;49.678;6.560;2023-09-07T06:05:19;100247.00;;;20.70
20092;BMP180;10205;49.678;6.560;2023-09-07T06:07:47;100253.00;;;20.70
20092;BMP180;10205;49.678;6.560;2023-09-07T06:10:14;100250.00;;;20.70
20092;BMP180;10205;49.678;6.560;2023-09-07T06:12:43;100253.00;;;20.60
20092;BMP180;10205;49.678;6.560;2023-09-07T06:15:12;100257.00;;;20.60
20092;BMP180;10205;49.678;6.560;2023-09-07T06:17:39;100264.00;;;20.60
20092;BMP180;10205;49.678;6.560;2023-09-07T06:20:07;100269.00;;;20.60
20092;BMP180;10205;49.678;6.560;2023-09-07T06:22:35;100271.00;;;20.60
20092;BMP180;10205;49.678;6.560;2023-09-07T06:25:02;100265.00;;;20.60
20092;BMP180;10205;49.678;6.560;2023-09-07T06:27:29;100266.00;;;20.50
20092;BMP180;10205;49.678;6.560;2023-09-07T06:29:56;100269.00;;;20.50
20092;BMP180;10205;49.678;6.560;2023-09-07T06:32:25;100270.00;;;20.50
20092;BMP180;10205;49.678;6.560;2023-09-07T06:34:52;100260.00;;;20.50
20092;BMP180;10205;49.678;6.560;2023-09-07T06:37:19;100261.00;;;20.50
20092;BMP180;10205;49.678;6.560;2023-09-07T06:39:46;100256.00;;;20.40
20092;BMP180;10205;49.678;6.560;2023-09-07T06:42:13;100258.00;;;20.40
20092;BMP180;10205;49.678;6.560;2023-09-07T06:44:41;100261.00;;;20.30
20092;BMP180;10205;49.678;6.560;2023-09-07T06:47:08;100257.00;;;20.30
20092;BMP180;10205;49.678;6.560;2023-09-07T06:49:37;100260.00;;;20.30
20092;BMP180;10205;49.678;6.560;2023-09-07T06:52:05;100258.00;;;20.30
20092;BMP180;10205;49.678;6.560;2023-09-07T06:54:32;100258.00;;;20.30
20092;BMP180;10205;49.678;6.560;2023-09-07T06:56:59;100261.00;;;20.30
20092;BMP180;10205;49.678;6.560;2023-09-07T06:59:26;100258.00;;;20.30
20092;BMP180;10205;49.678;6.560;2023-09-07T07:01:53;100264.00;;;20.30
20092;BMP180;10205;49.678;6.560;2023-09-07T07:04:20;100256.00;;;20.30
20092;BMP180;10205;49.678;6.560;2023-09-07T07:06:49;100249.00;;;20.30
20092;BMP180;10205;49.678;6.560;2023-09-07T07:09:16;100250.00;;;20.30
20092;BMP180;10205;49.678;6.560;2023-09-07T07:11:43;100251.00;;;20.30
20092;BMP180;10205;49.678;6.560;2023-09-07T07:14:10;100253.00;;;20.30
20092;BMP180;10205;49.678;6.560;2023-09-07T07:16:37;100243.00;;;20.40
20092;BMP180;10205;49.678;6.560;2023-09-07T07:19:04;100244.00;;;20.40
20092;BMP180;10205;49.678;6.560;2023-09-07T07:21:31;100246.00;;;20.40
20092;BMP180;10205;49.678;6.560;2023-09-07T07:24:00;100246.00;;;20.40
20092;BMP180;10205;49.678;6.560;2023-09-07T07:26:27;100246.00;;;20.50
20092;BMP180;10205;49.678;6.560;2023-09-07T07:28:54;100250.00;;;20.50
20092;BMP180;10205;49.678;6.560;2023-09-07T07:31:21;100243.00;;;20.50
20092;BMP180;10205;49.678;6.560;2023-09-07T07:33:48;100244.00;;;20.60
20092;BMP180;10205;49.678;6.560;2023-09-07T07:36:15;100239.00;;;20.60
20092;BMP180;10205;49.678;6.560;2023-09-07T07:38:42;100237.00;;;20.60
20092;BMP180;10205;49.678;6.560;2023-09-07T07:41:11;100228.00;;;20.70
20092;BMP180;10205;49.678;6.560;2023-09-07T07:43:38;100230.00;;;20.70
20092;BMP180;10205;49.678;6.560;2023-09-07T07:46:06;100227.00;;;20.80
20092;BMP180;10205;49.678;6.560;2023-09-07T07:48:33;100231.00;;;20.80
20092;BMP180;10205;49.678;6.560;2023-09-07T07:51:03;100226.00;;;20.90
20092;BMP180;10205;49.678;6.560;2023-09-07T07:53:31;100224.00;;;20.90
20092;BMP180;10205;49.678;6.560;2023-09-07T07:55:58;100223.00;;;20.90
20092;BMP180;10205;49.678;6.560;2023-09-07T07:58:26;100228.00;;;21.00
20092;BMP180;10205;49.678;6.560;2023-09-07T08:00:53;100223.00;;;21.10
20092;BMP180;10205;49.678;6.560;2023-09-07T08:03:23;100222.00;;;21.10
20092;BMP180;10205;49.678;6.560;2023-09-07T08:05:50;100217.00;;;21.20
20092;BMP180;10205;49.678;6.560;2023-09-07T08:08:17;100212.00;;;21.20
20092;BMP180;10205;49.678;6.560;2023-09-07T08:10:45;100217.00;;;21.30
20092;BMP180;10205;49.678;6.560;2023-09-07T08:13:12;100214.00;;;21.40
20092;BMP180;10205;49.678;6.560;2023-09-07T08:15:41;100215.00;;;21.40
20092;BMP180;10205;49.678;6.560;2023-09-07T08:18:08;100223.00;;;21.50
20092;BMP180;10205;49.678;6.560;2023-09-07T08:20:36;100215.00;;;21.60
20092;BMP180;10205;49.678;6.560;2023-09-07T08:23:06;100210.00;;;21.70
20092;BMP180;10205;49.678;6.560;2023-09-07T08:25:35;100206.00;;;21.70
20092;BMP180;10205;49.678;6.560;2023-09-07T08:28:02;100198.00;;;21.80
20092;BMP180;10205;49.678;6.560;2023-09-07T08:30:33;100202.00;;;21.90
20092;BMP180;10205;49.678;6.560;2023-09-07T08:33:01;100201.00;;;22.00
20092;BMP180;10205;49.678;6.560;2023-09-07T08:35:31;100198.00;;;22.00
20092;BMP180;10205;49.678;6.560;2023-09-07T08:38:01;100204.00;;;22.10
20092;BMP180;10205;49.678;6.560;2023-09-07T08:40:31;100203.00;;;22.20
20092;BMP180;10205;49.678;6.560;2023-09-07T08:43:03;100197.00;;;22.30
20092;BMP180;10205;49.678;6.560;2023-09-07T08:45:41;100205.00;;;22.40
20092;BMP180;10205;49.678;6.560;2023-09-07T08:48:11;100208.00;;;22.50
20092;BMP180;10205;49.678;6.560;2023-09-07T08:50:42;100202.00;;;22.60
20092;BMP180;10205;49.678;6.560;2023-09-07T08:53:10;100205.00;;;22.60
20092;BMP180;10205;49.678;6.560;2023-09-07T08:55:37;100203.00;;;22.70
20092;BMP180;10205;49.678;6.560;2023-09-07T08:58:04;100199.00;;;22.80
20092;BMP180;10205;49.678;6.560;2023-09-07T09:00:31;100201.00;;;22.90
20092;BMP180;10205;49.678;6.560;2023-09-07T09:02:59;100198.00;;;23.00
20092;BMP180;10205;49.678;6.560;2023-09-07T09:05:30;100204.00;;;23.10
20092;BMP180;10205;49.678;6.560;2023-09-07T09:08:05;100196.00;;;23.20
20092;BMP180;10205;49.678;6.560;2023-09-07T09:10:32;100193.00;;;23.30
20092;BMP180;10205;49.678;6.560;2023-09-07T09:12:59;100193.00;;;23.40
20092;BMP180;10205;49.678;6.560;2023-09-07T09:15:26;100187.00;;;23.50
20092;BMP180;10205;49.678;6.560;2023-09-07T09:17:54;100185.00;;;23.70
20092;BMP180;10205;49.678;6.560;2023-09-07T09:20:23;100183.00;;;23.80
20092;BMP180;10205;49.678;6.560;2023-09-07T09:22:53;100186.00;;;23.90
20092;BMP180;10205;49.678;6.560;2023-09-07T09:25:22;100187.00;;;24.00
20092;BMP180;10205;49.678;6.560;2023-09-07T09:27:49;100182.00;;;24.10
20092;BMP180;10205;49.678;6.560;2023-09-07T09:30:17;100178.00;;;24.20
20092;BMP180;10205;49.678;6.560;2023-09-07T09:32:44;100184.00;;;24.30
20092;BMP180;10205;49.678;6.560;2023-09-07T09:35:11;100178.00;;;24.40
20092;BMP180;10205;49.678;6.560;2023-09-07T09:37:45;100171.00;;;24.50
20092;BMP180;10205;49.678;6.560;2023-09-07T09:40:14;100175.00;;;24.60
20092;BMP180;10205;49.678;6.560;2023-09-07T09:42:43;100162.00;;;24.70
20092;BMP180;10205;49.678;6.560;2023-09-07T09:45:11;100157.00;;;24.80
20092;BMP180;10205;49.678;6.560;2023-09-07T09:47:40;100163.00;;;24.90
20092;BMP180;10205;49.678;6.560;2023-09-07T09:50:10;100166.00;;;25.00
20092;BMP180;10205;49.678;6.560;2023-09-07T09:52:38;100163.00;;;25.10
20092;BMP180;10205;49.678;6.560;2023-09-07T09:55:07;100174.00;;;25.30
20092;BMP180;10205;49.678;6.560;2023-09-07T09:57:40;100167.00;;;25.40
20092;BMP180;10205;49.678;6.560;2023-09-07T10:00:08;100161.00;;;25.50
20092;BMP180;10205;49.678;6.560;2023-09-07T10:02:59;100158.00;;;25.60
20092;BMP180;10205;49.678;6.560;2023-09-07T10:05:28;100150.00;;;25.70
20092;BMP180;10205;49.678;6.560;2023-09-07T10:08:02;100148.00;;;25.80
20092;BMP180;10205;49.678;6.560;2023-09-07T10:10:34;100153.00;;;25.90
20092;BMP180;10205;49.678;6.560;2023-09-07T10:13:05;100142.00;;;26.00
20092;BMP180;10205;49.678;6.560;2023-09-07T10:15:33;100147.00;;;26.10
20092;BMP180;10205;49.678;6.560;2023-09-07T10:18:10;100144.00;;;26.20
20092;BMP180;10205;49.678;6.560;2023-09-07T10:20:53;100138.00;;;26.30
20092;BMP180;10205;49.678;6.560;2023-09-07T10:23:21;100141.00;;;26.40
20092;BMP180;10205;49.678;6.560;2023-09-07T10:25:51;100139.00;;;26.60
20092;BMP180;10205;49.678;6.560;2023-09-07T10:28:22;100125.00;;;26.70
20092;BMP180;10205;49.678;6.560;2023-09-07T10:31:03;100121.00;;;26.80
20092;BMP180;10205;49.678;6.560;2023-09-07T10:33:32;100114.00;;;26.90
20092;BMP180;10205;49.678;6.560;2023-09-07T10:36:00;100119.00;;;27.00
20092;BMP180;10205;49.678;6.560;2023-09-07T10:38:27;100121.00;;;27.10
20092;BMP180;10205;49.678;6.560;2023-09-07T10:40:58;100116.00;;;27.20
20092;BMP180;10205;49.678;6.560;2023-09-07T10:43:29;100120.00;;;27.30
20092;BMP180;10205;49.678;6.560;2023-09-07T10:45:58;100125.00;;;27.40
20092;BMP180;10205;49.678;6.560;2023-09-07T10:48:28;100110.00;;;27.50
20092;BMP180;10205;49.678;6.560;2023-09-07T10:50:56;100121.00;;;27.60
20092;BMP180;10205;49.678;6.560;2023-09-07T10:53:28;100127.00;;;27.70
20092;BMP180;10205;49.678;6.560;2023-09-07T10:55:58;100113.00;;;27.80
20092;BMP180;10205;49.678;6.560;2023-09-07T10:58:30;100112.00;;;27.90
20092;BMP180;10205;49.678;6.560;2023-09-07T11:00:59;100116.00;;;28.00
20092;BMP180;10205;49.678;6.560;2023-09-07T11:03:27;100114.00;;;28.10
20092;BMP180;10205;49.678;6.560;2023-09-07T11:05:58;100110.00;;;28.20
20092;BMP180;10205;49.678;6.560;2023-09-07T11:08:28;100111.00;;;28.20
20092;BMP180;10205;49.678;6.560;2023-09-07T11:10:56;100106.00;;;28.30
20092;BMP180;10205;49.678;6.560;2023-09-07T11:13:24;100113.00;;;28.40
20092;BMP180;10205;49.678;6.560;2023-09-07T11:15:55;100103.00;;;28.50
20092;BMP180;10205;49.678;6.560;2023-09-07T11:18:24;100107.00;;;28.60
20092;BMP180;10205;49.678;6.560;2023-09-07T11:20:52;100106.00;;;28.70
20092;BMP180;10205;49.678;6.560;2023-09-07T11:23:21;100101.00;;;28.80
20092;BMP180;10205;49.678;6.560;2023-09-07T11:25:50;100100.00;;;28.90
20092;BMP180;10205;49.678;6.560;2023-09-07T11:28:19;100096.00;;;29.00
20092;BMP180;10205;49.678;6.560;2023-09-07T11:30:54;100087.00;;;29.00
20092;BMP180;10205;49.678;6.560;2023-09-07T11:33:22;100088.00;;;29.10
20092;BMP180;10205;49.678;6.560;2023-09-07T11:35:50;100092.00;;;29.20
20092;BMP180;10205;49.678;6.560;2023-09-07T11:38:18;100098.00;;;29.30
20092;BMP180;10205;49.678;6.560;2023-09-07T11:40:45;100095.00;;;29.40
20092;BMP180;10205;49.678;6.560;2023-09-07T11:43:12;100095.00;;;29.50
20092;BMP180;10205;49.678;6.560;2023-09-07T11:45:40;100095.00;;;29.50
20092;BMP180;10205;49.678;6.560;2023-09-07T11:48:09;100090.00;;;29.60
20092;BMP180;10205;49.678;6.560;2023-09-07T11:50:38;100089.00;;;29.70
20092;BMP180;10205;49.678;6.560;2023-09-07T11:53:06;100084.00;;;29.80
20092;BMP180;10205;49.678;6.560;2023-09-07T11:55:34;100088.00;;;29.90
20092;BMP180;10205;49.678;6.560;2023-09-07T11:58:01;100084.00;;;30.00
20092;BMP180;10205;49.678;6.560;2023-09-07T12:00:28;100075.00;;;30.10
20092;BMP180;10205;49.678;6.560;2023-09-07T12:02:59;100070.00;;;30.10
20092;BMP180;10205;49.678;6.560;2023-09-07T12:05:28;100065.00;;;30.20
20092;BMP180;10205;49.678;6.560;2023-09-07T12:07:55;100074.00;;;30.30
20092;BMP180;10205;49.678;6.560;2023-09-07T12:10:23;100070.00;;;30.40
20092;BMP180;10205;49.678;6.560;2023-09-07T12:12:50;100080.00;;;30.40
20092;BMP180;10205;49.678;6.560;2023-09-07T12:15:17;100064.00;;;30.50
20092;BMP180;10205;49.678;6.560;2023-09-07T12:17:44;100057.00;;;30.60
20092;BMP180;10205;49.678;6.560;2023-09-07T12:20:12;100063.00;;;30.70
20092;BMP180;10205;49.678;6.560;2023-09-07T12:22:41;100060.00;;;30.70
20092;BMP180;10205;49.678;6.560;2023-09-07T12:25:09;100066.00;;;30.80
20092;BMP180;10205;49.678;6.560;2023-09-07T12:27:36;100059.00;;;30.90
20092;BMP180;10205;49.678;6.560;2023-09-07T12:30:05;100058.00;;;31.00
20092;BMP180;10205;49.678;6.560;2023-09-07T12:32:38;100058.00;;;31.00
20092;BMP180;10205;49.678;6.560;2023-09-07T12:35:06;100054.00;;;31.10
20092;BMP180;10205;49.678;6.560;2023-09-07T12:37:35;100059.00;;;31.10
20092;BMP180;10205;49.678;6.560;2023-09-07T12:40:05;100054.00;;;31.20
20092;BMP180;10205;49.678;6.560;2023-09-07T12:42:38;100048.00;;;31.30
20092;BMP180;10205;49.678;6.560;2023-09-07T12:45:07;100046.00;;;31.30
20092;BMP180;10205;49.678;6.560;2023-09-07T12:47:35;100046.00;;;31.40
20092;BMP180;10205;49.678;6.560;2023-09-07T12:50:03;100046.00;;;31.40
20092;BMP180;10205;49.678;6.560;2023-09-07T12:52:31;100049.00;;;31.50
20092;BMP180;10205;49.678;6.560;2023-09-07T12:54:58;100043.00;;;31.50
20092;BMP180;10205;49.678;6.560;2023-09-07T12:57:26;100033.00;;;31.60
20092;BMP180;10205;49.678;6.560;2023-09-07T12:59:53;100038.00;;;31.60
20092;BMP180;10205;49.678;6.560;2023-09-07T13:02:20;100035.00;;;31.70
20092;BMP180;10205;49.678;6.560;2023-09-07T13:04:47;100031.00;;;31.80
20092;BMP180;10205;49.678;6.560;2023-09-07T13:07:14;100028.00;;;31.80
20092;BMP180;10205;49.678;6.560;2023-09-07T13:09:43;100016.00;;;31.90
20092;BMP180;10205;49.678;6.560;2023-09-07T13:12:11;100027.00;;;31.90
20092;BMP180;10205;49.678;6.560;2023-09-07T13:14:39;100021.00;;;32.00
20092;BMP180;10205;49.678;6.560;2023-09-07T13:17:11;100025.00;;;32.00
20092;BMP180;10205;49.678;6.560;2023-09-07T13:19:39;100030.00;;;32.10
20092;BMP180;10205;49.678;6.560;2023-09-07T13:22:06;100031.00;;;32.10
20092;BMP180;10205;49.678;6.560;2023-09-07T13:24:33;100024.00;;;32.20
20092;BMP180;10205;49.678;6.560;2023-09-07T13:27:00;100025.00;;;32.20
20092;BMP180;10205;49.678;6.560;2023-09-07T13:29:28;100017.00;;;32.30
20092;BMP180;10205;49.678;6.560;2023-09-07T13:31:56;100020.00;;;32.30
20092;BMP180;10205;49.678;6.560;2023-09-07T13:34:24;100012.00;;;32.30
20092;BMP180;10205;49.678;6.560;2023-09-07T13:36:51;100018.00;;;32.40
20092;BMP180;10205;49.678;6.560;2023-09-07T13:39:19;100015.00;;;32.40
20092;BMP180;10205;49.678;6.560;2023-09-07T13:41:46;100013.00;;;32.40
20092;BMP180;10205;49.678;6.560;2023-09-07T13:44:14;100015.00;;;32.40
20092;BMP180;10205;49.678;6.560;2023-09-07T13:46:42;100005.00;;;32.50
20092;BMP180;10205;49.678;6.560;2023-09-07T13:49:12;100007.00;;;32.50
20092;BMP180;10205;49.678;6.560;2023-09-07T13:51:40;100007.00;;;32.50
20092;BMP180;10205;49.678;6.560;2023-09-07T13:54:08;100012.00;;;32.50
20092;BMP180;10205;49.678;6.560;2023-09-07T13:56:36;100014.00;;;32.50
20092;BMP180;10205;49.678;6.560;2023-09-07T13:59:03;100019.00;;;32.50
20092;BMP180;10205;49.678;6.560;2023-09-07T14:01:30;100013.00;;;32.60